sensor_id;sensor_type;location;lat;lon;timestamp;P1;durP1;ratioP1;P2;durP2;ratioP2
12725;SDS011;6427;49.754;6.106;2023-07-29T00:02:21;2.13;;;1.40;;
12725;SDS011;6427;49.754;6.106;2023-07-29T00:04:49;3.85;;;1.42;;
12725;SDS011;6427;49.754;6.106;2023-07-29T00:07:16;1.30;;;1.20;;
12725;SDS011;6427;49.754;6.106;2023-07-29T00:09:44;1.30;;;1.10;;
12725;SDS011;6427;49.754;6.106;2023-07-29T00:12:12;1.60;;;1.30;;
12725;SDS011;6427;49.754;6.106;2023-07-29T00:14:40;1.60;;;1.47;;
12725;SDS011;6427;49.754;6.106;2023-07-29T00:17:08;2.93;;;1.40;;
12725;SDS011;6427;49.754;6.106;2023-07-29T00:19:37;5.83;;;1.33;;
12725;SDS011;6427;49.754;6.106;2023-07-29T00:22:07;1.27;;;1.03;;
12725;SDS011;6427;49.754;6.106;2023-07-29T00:24:35;3.17;;;1.40;;
12725;SDS011;6427;49.754;6.106;2023-07-29T00:27:03;2.67;;;1.20;;
12725;SDS011;6427;49.754;6.106;2023-07-29T00:29:30;2.03;;;1.60;;
12725;SDS011;6427;49.754;6.106;2023-07-29T00:31:58;4.00;;;1.40;;
12725;SDS011;6427;49.754;6.106;2023-07-29T00:34:26;1.77;;;1.30;;
12725;SDS011;6427;49.754;6.106;2023-07-29T00:36:54;1.33;;;1.13;;
12725;SDS011;6427;49.754;6.106;2023-07-29T00:39:21;3.47;;;1.40;;
12725;SDS011;6427;49.754;6.106;2023-07-29T00:41:49;1.67;;;1.17;;
12725;SDS011;6427;49.754;6.106;2023-07-29T00:44:17;5.03;;;1.80;;
12725;SDS011;6427;49.754;6.106;2023-07-29T00:46:45;2.60;;;1.40;;
12725;SDS011;6427;49.754;6.106;2023-07-29T00:49:13;3.20;;;1.67;;
12725;SDS011;6427;49.754;6.106;2023-07-29T00:51:41;1.30;;;1.10;;
12725;SDS011;6427;49.754;6.106;2023-07-29T00:54:09;2.70;;;1.40;;
12725;SDS011;6427;49.754;6.106;2023-07-29T00:56:37;1.80;;;1.53;;
12725;SDS011;6427;49.754;6.106;2023-07-29T00:59:05;2.57;;;1.27;;
12725;SDS011;6427;49.754;6.106;2023-07-29T01:01:33;3.43;;;1.40;;
12725;SDS011;6427;49.754;6.106;2023-07-29T01:04:00;2.80;;;1.50;;
12725;SDS011;6427;49.754;6.106;2023-07-29T01:06:41;2.57;;;1.20;;
12725;SDS011;6427;49.754;6.106;2023-07-29T01:09:20;1.87;;;1.60;;
12725;SDS011;6427;49.754;6.106;2023-07-29T01:16:57;1.87;;;1.47;;
12725;SDS011;6427;49.754;6.106;2023-07-29T01:21:54;2.60;;;1.30;;
12725;SDS011;6427;49.754;6.106;2023-07-29T01:24:22;3.37;;;1.27;;
12725;SDS011;6427;49.754;6.106;2023-07-29T01:26:49;5.03;;;1.60;;
12725;SDS011;6427;49.754;6.106;2023-07-29T01:29:17;2.53;;;1.57;;
12725;SDS011;6427;49.754;6.106;2023-07-29T01:31:45;3.23;;;1.33;;
12725;SDS011;6427;49.754;6.106;2023-07-29T01:34:16;1.80;;;1.17;;
12725;SDS011;6427;49.754;6.106;2023-07-29T01:36:41;2.67;;;1.20;;
12725;SDS011;6427;49.754;6.106;2023-07-29T01:39:08;1.70;;;1.17;;
12725;SDS011;6427;49.754;6.106;2023-07-29T01:41:36;1.70;;;1.47;;
12725;SDS011;6427;49.754;6.106;2023-07-29T01:44:04;2.20;;;1.30;;
12725;SDS011;6427;49.754;6.106;2023-07-29T01:46:33;2.83;;;1.30;;
12725;SDS011;6427;49.754;6.106;2023-07-29T01:48:59;1.70;;;1.50;;
12725;SDS011;6427;49.754;6.106;2023-07-29T01:51:27;5.45;;;1.60;;
12725;SDS011;6427;49.754;6.106;2023-07-29T01:53:55;3.80;;;1.57;;
12725;SDS011;6427;49.754;6.106;2023-07-29T01:56:22;2.30;;;1.40;;
12725;SDS011;6427;49.754;6.106;2023-07-29T01:58:51;2.77;;;1.37;;
12725;SDS011;6427;49.754;6.106;2023-07-29T02:01:19;2.50;;;1.50;;
12725;SDS011;6427;49.754;6.106;2023-07-29T02:03:47;2.83;;;1.13;;
12725;SDS011;6427;49.754;6.106;2023-07-29T02:06:15;3.03;;;1.60;;
12725;SDS011;6427;49.754;6.106;2023-07-29T02:08:43;1.77;;;1.63;;
12725;SDS011;6427;49.754;6.106;2023-07-29T02:11:11;1.47;;;1.33;;
12725;SDS011;6427;49.754;6.106;2023-07-29T02:13:39;2.28;;;1.35;;
12725;SDS011;6427;49.754;6.106;2023-07-29T02:16:07;3.97;;;1.17;;
12725;SDS011;6427;49.754;6.106;2023-07-29T02:18:35;4.03;;;1.33;;
12725;SDS011;6427;49.754;6.106;2023-07-29T02:21:03;1.83;;;1.10;;
12725;SDS011;6427;49.754;6.106;2023-07-29T02:23:30;3.03;;;1.20;;
12725;SDS011;6427;49.754;6.106;2023-07-29T02:25:58;2.40;;;1.23;;
12725;SDS011;6427;49.754;6.106;2023-07-29T02:28:27;1.60;;;1.50;;
12725;SDS011;6427;49.754;6.106;2023-07-29T02:31:13;3.43;;;1.60;;
12725;SDS011;6427;49.754;6.106;2023-07-29T02:33:37;1.33;;;1.23;;
12725;SDS011;6427;49.754;6.106;2023-07-29T02:36:05;2.60;;;1.60;;
12725;SDS011;6427;49.754;6.106;2023-07-29T02:38:32;1.30;;;1.20;;
12725;SDS011;6427;49.754;6.106;2023-07-29T02:41:00;1.97;;;1.47;;
12725;SDS011;6427;49.754;6.106;2023-07-29T02:43:27;1.98;;;1.40;;
12725;SDS011;6427;49.754;6.106;2023-07-29T02:45:55;1.87;;;1.40;;
12725;SDS011;6427;49.754;6.106;2023-07-29T02:48:23;2.23;;;1.30;;
12725;SDS011;6427;49.754;6.106;2023-07-29T02:50:51;2.80;;;1.60;;
12725;SDS011;6427;49.754;6.106;2023-07-29T02:53:18;6.57;;;1.77;;
12725;SDS011;6427;49.754;6.106;2023-07-29T02:55:46;2.53;;;1.40;;
12725;SDS011;6427;49.754;6.106;2023-07-29T02:58:14;3.63;;;1.50;;
12725;SDS011;6427;49.754;6.106;2023-07-29T03:00:41;4.13;;;1.67;;
12725;SDS011;6427;49.754;6.106;2023-07-29T03:03:09;1.60;;;1.50;;
12725;SDS011;6427;49.754;6.106;2023-07-29T03:05:37;2.28;;;1.77;;
12725;SDS011;6427;49.754;6.106;2023-07-29T03:08:05;2.63;;;1.50;;
12725;SDS011;6427;49.754;6.106;2023-07-29T03:10:34;3.70;;;1.70;;
12725;SDS011;6427;49.754;6.106;2023-07-29T03:13:02;4.70;;;1.83;;
12725;SDS011;6427;49.754;6.106;2023-07-29T03:15:29;1.77;;;1.53;;
12725;SDS011;6427;49.754;6.106;2023-07-29T03:17:57;4.17;;;1.80;;
12725;SDS011;6427;49.754;6.106;2023-07-29T03:20:24;5.45;;;2.25;;
12725;SDS011;6427;49.754;6.106;2023-07-29T03:22:52;7.47;;;2.20;;
12725;SDS011;6427;49.754;6.106;2023-07-29T03:25:19;7.10;;;2.33;;
12725;SDS011;6427;49.754;6.106;2023-07-29T03:27:48;5.33;;;2.17;;
12725;SDS011;6427;49.754;6.106;2023-07-29T03:30:18;3.23;;;2.10;;
12725;SDS011;6427;49.754;6.106;2023-07-29T03:32:43;3.00;;;1.97;;
12725;SDS011;6427;49.754;6.106;2023-07-29T03:35:11;4.80;;;1.90;;
12725;SDS011;6427;49.754;6.106;2023-07-29T03:37:39;5.00;;;2.53;;
12725;SDS011;6427;49.754;6.106;2023-07-29T03:40:07;5.30;;;2.50;;
12725;SDS011;6427;49.754;6.106;2023-07-29T03:42:35;4.15;;;2.08;;
12725;SDS011;6427;49.754;6.106;2023-07-29T03:45:02;7.37;;;2.03;;
12725;SDS011;6427;49.754;6.106;2023-07-29T03:47:29;2.83;;;1.83;;
12725;SDS011;6427;49.754;6.106;2023-07-29T03:49:58;3.60;;;1.60;;
12725;SDS011;6427;49.754;6.106;2023-07-29T03:52:25;4.17;;;1.60;;
12725;SDS011;6427;49.754;6.106;2023-07-29T03:54:54;4.28;;;2.33;;
12725;SDS011;6427;49.754;6.106;2023-07-29T03:57:21;2.70;;;1.83;;
12725;SDS011;6427;49.754;6.106;2023-07-29T03:59:49;2.23;;;1.47;;
12725;SDS011;6427;49.754;6.106;2023-07-29T04:02:16;7.70;;;2.00;;
12725;SDS011;6427;49.754;6.106;2023-07-29T04:04:44;5.23;;;2.10;;
12725;SDS011;6427;49.754;6.106;2023-07-29T04:07:13;1.83;;;1.40;;
12725;SDS011;6427;49.754;6.106;2023-07-29T04:09:40;4.27;;;1.80;;
12725;SDS011;6427;49.754;6.106;2023-07-29T04:12:08;2.50;;;1.70;;
12725;SDS011;6427;49.754;6.106;2023-07-29T04:14:35;2.73;;;1.60;;
12725;SDS011;6427;49.754;6.106;2023-07-29T04:17:03;6.03;;;2.00;;
12725;SDS011;6427;49.754;6.106;2023-07-29T04:19:31;3.60;;;2.45;;
12725;SDS011;6427;49.754;6.106;2023-07-29T04:21:58;2.20;;;2.00;;
12725;SDS011;6427;49.754;6.106;2023-07-29T04:24:26;2.80;;;2.05;;
12725;SDS011;6427;49.754;6.106;2023-07-29T04:26:55;3.47;;;1.50;;
12725;SDS011;6427;49.754;6.106;2023-07-29T04:29:22;5.87;;;1.90;;
12725;SDS011;6427;49.754;6.106;2023-07-29T04:31:51;2.90;;;1.80;;
12725;SDS011;6427;49.754;6.106;2023-07-29T04:34:19;2.30;;;1.80;;
12725;SDS011;6427;49.754;6.106;2023-07-29T04:36:46;3.63;;;2.00;;
12725;SDS011;6427;49.754;6.106;2023-07-29T04:39:14;4.47;;;2.00;;
12725;SDS011;6427;49.754;6.106;2023-07-29T04:41:42;2.43;;;1.80;;
12725;SDS011;6427;49.754;6.106;2023-07-29T04:44:10;2.80;;;1.93;;
12725;SDS011;6427;49.754;6.106;2023-07-29T04:46:37;2.70;;;1.63;;
12725;SDS011;6427;49.754;6.106;2023-07-29T04:49:05;2.47;;;1.80;;
12725;SDS011;6427;49.754;6.106;2023-07-29T04:51:32;1.60;;;1.50;;
12725;SDS011;6427;49.754;6.106;2023-07-29T04:54:00;2.37;;;1.58;;
12725;SDS011;6427;49.754;6.106;2023-07-29T04:56:27;3.57;;;1.53;;
12725;SDS011;6427;49.754;6.106;2023-07-29T04:58:55;2.53;;;1.60;;
12725;SDS011;6427;49.754;6.106;2023-07-29T05:01:23;4.07;;;1.67;;
12725;SDS011;6427;49.754;6.106;2023-07-29T05:03:50;1.60;;;1.47;;
12725;SDS011;6427;49.754;6.106;2023-07-29T05:06:18;4.00;;;2.05;;
12725;SDS011;6427;49.754;6.106;2023-07-29T05:08:46;3.50;;;1.50;;
12725;SDS011;6427;49.754;6.106;2023-07-29T05:11:13;3.60;;;1.60;;
12725;SDS011;6427;49.754;6.106;2023-07-29T05:13:41;3.83;;;1.67;;
12725;SDS011;6427;49.754;6.106;2023-07-29T05:16:09;4.00;;;1.87;;
12725;SDS011;6427;49.754;6.106;2023-07-29T05:18:37;1.97;;;1.63;;
12725;SDS011;6427;49.754;6.106;2023-07-29T05:21:05;2.17;;;1.60;;
12725;SDS011;6427;49.754;6.106;2023-07-29T05:23:33;3.60;;;1.53;;
12725;SDS011;6427;49.754;6.106;2023-07-29T05:26:02;3.30;;;1.73;;
12725;SDS011;6427;49.754;6.106;2023-07-29T05:28:29;5.70;;;2.07;;
12725;SDS011;6427;49.754;6.106;2023-07-29T05:31:00;4.00;;;1.93;;
12725;SDS011;6427;49.754;6.106;2023-07-29T05:33:26;2.90;;;2.07;;
12725;SDS011;6427;49.754;6.106;2023-07-29T05:35:54;3.07;;;1.90;;
12725;SDS011;6427;49.754;6.106;2023-07-29T05:38:21;3.87;;;2.33;;
12725;SDS011;6427;49.754;6.106;2023-07-29T05:40:49;3.87;;;2.20;;
12725;SDS011;6427;49.754;6.106;2023-07-29T05:43:16;2.90;;;2.07;;
12725;SDS011;6427;49.754;6.106;2023-07-29T05:45:44;2.60;;;2.10;;
12725;SDS011;6427;49.754;6.106;2023-07-29T05:48:12;6.07;;;2.05;;
12725;SDS011;6427;49.754;6.106;2023-07-29T05:50:39;3.17;;;1.90;;
12725;SDS011;6427;49.754;6.106;2023-07-29T05:53:07;2.17;;;1.90;;
12725;SDS011;6427;49.754;6.106;2023-07-29T05:55:34;3.23;;;1.80;;
12725;SDS011;6427;49.754;6.106;2023-07-29T05:58:02;1.93;;;1.63;;
12725;SDS011;6427;49.754;6.106;2023-07-29T06:00:30;3.77;;;2.10;;
12725;SDS011;6427;49.754;6.106;2023-07-29T06:02:57;3.77;;;1.80;;
12725;SDS011;6427;49.754;6.106;2023-07-29T06:05:25;4.23;;;2.20;;
12725;SDS011;6427;49.754;6.106;2023-07-29T06:07:53;3.28;;;2.20;;
12725;SDS011;6427;49.754;6.106;2023-07-29T06:10:21;5.17;;;2.70;;
12725;SDS011;6427;49.754;6.106;2023-07-29T06:12:48;4.93;;;2.20;;
12725;SDS011;6427;49.754;6.106;2023-07-29T06:15:16;2.70;;;2.20;;
12725;SDS011;6427;49.754;6.106;2023-07-29T06:17:44;2.63;;;1.67;;
12725;SDS011;6427;49.754;6.106;2023-07-29T06:20:11;4.33;;;2.30;;
12725;SDS011;6427;49.754;6.106;2023-07-29T06:22:39;3.80;;;2.10;;
12725;SDS011;6427;49.754;6.106;2023-07-29T06:25:06;6.03;;;2.37;;
12725;SDS011;6427;49.754;6.106;2023-07-29T06:27:34;2.50;;;2.20;;
12725;SDS011;6427;49.754;6.106;2023-07-29T06:30:02;2.53;;;2.13;;
12725;SDS011;6427;49.754;6.106;2023-07-29T06:32:29;5.63;;;2.30;;
12725;SDS011;6427;49.754;6.106;2023-07-29T06:34:58;5.40;;;2.10;;
12725;SDS011;6427;49.754;6.106;2023-07-29T06:37:25;6.00;;;2.10;;
12725;SDS011;6427;49.754;6.106;2023-07-29T06:39:53;3.85;;;2.10;;
12725;SDS011;6427;49.754;6.106;2023-07-29T06:42:20;3.30;;;1.73;;
12725;SDS011;6427;49.754;6.106;2023-07-29T06:44:49;2.37;;;1.73;;
12725;SDS011;6427;49.754;6.106;2023-07-29T06:47:16;1.97;;;1.50;;
12725;SDS011;6427;49.754;6.106;2023-07-29T06:49:45;3.17;;;1.60;;
12725;SDS011;6427;49.754;6.106;2023-07-29T06:52:12;3.33;;;1.97;;
12725;SDS011;6427;49.754;6.106;2023-07-29T06:54:39;2.70;;;1.95;;
12725;SDS011;6427;49.754;6.106;2023-07-29T06:57:07;3.40;;;1.70;;
12725;SDS011;6427;49.754;6.106;2023-07-29T06:59:34;3.23;;;1.97;;
12725;SDS011;6427;49.754;6.106;2023-07-29T07:02:02;2.37;;;1.60;;
12725;SDS011;6427;49.754;6.106;2023-07-29T07:04:30;4.67;;;2.03;;
12725;SDS011;6427;49.754;6.106;2023-07-29T07:06:57;2.00;;;1.80;;
12725;SDS011;6427;49.754;6.106;2023-07-29T07:09:25;2.23;;;1.80;;
12725;SDS011;6427;49.754;6.106;2023-07-29T07:11:53;2.97;;;2.10;;
12725;SDS011;6427;49.754;6.106;2023-07-29T07:14:21;3.17;;;2.07;;
12725;SDS011;6427;49.754;6.106;2023-07-29T07:16:48;3.72;;;2.20;;
12725;SDS011;6427;49.754;6.106;2023-07-29T07:19:17;2.47;;;1.60;;
12725;SDS011;6427;49.754;6.106;2023-07-29T07:21:44;1.60;;;1.50;;
12725;SDS011;6427;49.754;6.106;2023-07-29T07:24:11;3.60;;;1.83;;
12725;SDS011;6427;49.754;6.106;2023-07-29T07:26:39;2.67;;;2.00;;
12725;SDS011;6427;49.754;6.106;2023-07-29T07:29:06;3.50;;;2.20;;
12725;SDS011;6427;49.754;6.106;2023-07-29T07:31:34;5.18;;;1.92;;
12725;SDS011;6427;49.754;6.106;2023-07-29T07:34:02;2.40;;;1.50;;
12725;SDS011;6427;49.754;6.106;2023-07-29T07:36:29;2.47;;;1.50;;
12725;SDS011;6427;49.754;6.106;2023-07-29T07:38:57;2.78;;;1.62;;
12725;SDS011;6427;49.754;6.106;2023-07-29T07:41:24;2.47;;;1.30;;
12725;SDS011;6427;49.754;6.106;2023-07-29T07:43:52;3.13;;;1.40;;
12725;SDS011;6427;49.754;6.106;2023-07-29T07:46:20;2.07;;;1.50;;
12725;SDS011;6427;49.754;6.106;2023-07-29T07:48:47;2.30;;;1.20;;
12725;SDS011;6427;49.754;6.106;2023-07-29T07:51:15;6.73;;;2.03;;
12725;SDS011;6427;49.754;6.106;2023-07-29T07:53:42;3.17;;;1.40;;
12725;SDS011;6427;49.754;6.106;2023-07-29T07:56:10;1.87;;;1.10;;
12725;SDS011;6427;49.754;6.106;2023-07-29T07:58:38;1.67;;;1.53;;
12725;SDS011;6427;49.754;6.106;2023-07-29T08:01:06;1.37;;;1.27;;
12725;SDS011;6427;49.754;6.106;2023-07-29T08:03:33;2.33;;;1.80;;
12725;SDS011;6427;49.754;6.106;2023-07-29T08:06:00;3.75;;;1.50;;
12725;SDS011;6427;49.754;6.106;2023-07-29T08:08:29;3.33;;;1.53;;
12725;SDS011;6427;49.754;6.106;2023-07-29T08:10:56;1.30;;;1.07;;
12725;SDS011;6427;49.754;6.106;2023-07-29T08:13:25;1.80;;;1.33;;
12725;SDS011;6427;49.754;6.106;2023-07-29T08:15:53;1.47;;;1.20;;
12725;SDS011;6427;49.754;6.106;2023-07-29T08:18:21;2.33;;;1.20;;
12725;SDS011;6427;49.754;6.106;2023-07-29T08:20:52;1.97;;;1.23;;
12725;SDS011;6427;49.754;6.106;2023-07-29T08:23:19;1.67;;;1.30;;
12725;SDS011;6427;49.754;6.106;2023-07-29T08:25:56;1.13;;;1.00;;
12725;SDS011;6427;49.754;6.106;2023-07-29T08:28:22;5.27;;;1.47;;
12725;SDS011;6427;49.754;6.106;2023-07-29T08:30:50;1.40;;;1.30;;
12725;SDS011;6427;49.754;6.106;2023-07-29T08:33:18;2.33;;;1.30;;
12725;SDS011;6427;49.754;6.106;2023-07-29T08:35:45;2.93;;;1.30;;
12725;SDS011;6427;49.754;6.106;2023-07-29T08:38:13;1.57;;;1.20;;
12725;SDS011;6427;49.754;6.106;2023-07-29T08:40:57;1.60;;;1.37;;
12725;SDS011;6427;49.754;6.106;2023-07-29T08:43:39;2.03;;;1.50;;
12725;SDS011;6427;49.754;6.106;2023-07-29T08:46:06;1.65;;;1.48;;
12725;SDS011;6427;49.754;6.106;2023-07-29T08:48:41;3.43;;;1.30;;
12725;SDS011;6427;49.754;6.106;2023-07-29T08:51:09;1.60;;;1.50;;
12725;SDS011;6427;49.754;6.106;2023-07-29T08:53:36;1.67;;;1.30;;
12725;SDS011;6427;49.754;6.106;2023-07-29T08:56:03;3.60;;;1.10;;
12725;SDS011;6427;49.754;6.106;2023-07-29T08:58:31;1.83;;;1.47;;
12725;SDS011;6427;49.754;6.106;2023-07-29T09:00:59;1.57;;;1.20;;
12725;SDS011;6427;49.754;6.106;2023-07-29T09:03:27;2.53;;;1.45;;
12725;SDS011;6427;49.754;6.106;2023-07-29T09:05:54;5.23;;;1.37;;
12725;SDS011;6427;49.754;6.106;2023-07-29T09:08:22;1.47;;;1.37;;
12725;SDS011;6427;49.754;6.106;2023-07-29T09:10:50;1.70;;;1.50;;
12725;SDS011;6427;49.754;6.106;2023-07-29T09:13:17;4.50;;;1.55;;
12725;SDS011;6427;49.754;6.106;2023-07-29T09:15:45;2.33;;;1.30;;
12725;SDS011;6427;49.754;6.106;2023-07-29T09:18:16;1.70;;;1.50;;
12725;SDS011;6427;49.754;6.106;2023-07-29T09:20:43;1.33;;;1.23;;
12725;SDS011;6427;49.754;6.106;2023-07-29T09:23:10;2.87;;;1.60;;
12725;SDS011;6427;49.754;6.106;2023-07-29T09:25:38;3.27;;;1.47;;
12725;SDS011;6427;49.754;6.106;2023-07-29T09:28:09;2.15;;;1.55;;
12725;SDS011;6427;49.754;6.106;2023-07-29T09:30:42;1.67;;;1.43;;
12725;SDS011;6427;49.754;6.106;2023-07-29T09:33:09;2.97;;;1.10;;
12725;SDS011;6427;49.754;6.106;2023-07-29T09:35:37;2.17;;;1.33;;
12725;SDS011;6427;49.754;6.106;2023-07-29T09:38:05;3.72;;;1.65;;
12725;SDS011;6427;49.754;6.106;2023-07-29T09:40:36;1.60;;;1.50;;
12725;SDS011;6427;49.754;6.106;2023-07-29T09:43:04;3.70;;;2.30;;
12725;SDS011;6427;49.754;6.106;2023-07-29T09:45:32;1.33;;;1.23;;
12725;SDS011;6427;49.754;6.106;2023-07-29T09:47:59;2.50;;;1.20;;
12725;SDS011;6427;49.754;6.106;2023-07-29T09:50:27;1.53;;;1.10;;
12725;SDS011;6427;49.754;6.106;2023-07-29T09:52:55;2.30;;;1.30;;
12725;SDS011;6427;49.754;6.106;2023-07-29T09:55:22;1.60;;;1.33;;
12725;SDS011;6427;49.754;6.106;2023-07-29T09:57:53;1.00;;;0.90;;
12725;SDS011;6427;49.754;6.106;2023-07-29T10:00:26;1.83;;;1.27;;
12725;SDS011;6427;49.754;6.106;2023-07-29T10:02:54;2.33;;;1.40;;
12725;SDS011;6427;49.754;6.106;2023-07-29T10:05:21;1.17;;;1.07;;
12725;SDS011;6427;49.754;6.106;2023-07-29T10:07:49;2.97;;;1.50;;
12725;SDS011;6427;49.754;6.106;2023-07-29T10:10:17;2.58;;;1.50;;
12725;SDS011;6427;49.754;6.106;2023-07-29T10:12:45;1.40;;;1.30;;
12725;SDS011;6427;49.754;6.106;2023-07-29T10:15:13;1.63;;;1.53;;
12725;SDS011;6427;49.754;6.106;2023-07-29T10:17:40;5.37;;;2.83;;
12725;SDS011;6427;49.754;6.106;2023-07-29T10:20:09;2.53;;;1.50;;
12725;SDS011;6427;49.754;6.106;2023-07-29T10:22:38;1.20;;;1.10;;
12725;SDS011;6427;49.754;6.106;2023-07-29T10:25:07;2.57;;;1.40;;
12725;SDS011;6427;49.754;6.106;2023-07-29T10:27:33;1.60;;;1.30;;
12725;SDS011;6427;49.754;6.106;2023-07-29T10:29:58;2.77;;;1.50;;
12725;SDS011;6427;49.754;6.106;2023-07-29T10:32:26;1.42;;;1.33;;
12725;SDS011;6427;49.754;6.106;2023-07-29T10:34:53;1.43;;;1.17;;
12725;SDS011;6427;49.754;6.106;2023-07-29T10:37:22;1.77;;;1.30;;
12725;SDS011;6427;49.754;6.106;2023-07-29T10:39:52;1.73;;;1.20;;
12725;SDS011;6427;49.754;6.106;2023-07-29T10:42:20;1.40;;;1.30;;
12725;SDS011;6427;49.754;6.106;2023-07-29T10:44:48;2.17;;;1.13;;
12725;SDS011;6427;49.754;6.106;2023-07-29T10:47:22;1.13;;;1.03;;
12725;SDS011;6427;49.754;6.106;2023-07-29T10:49:50;3.13;;;1.20;;
12725;SDS011;6427;49.754;6.106;2023-07-29T10:52:16;1.60;;;1.10;;
12725;SDS011;6427;49.754;6.106;2023-07-29T10:54:47;1.30;;;1.20;;
12725;SDS011;6427;49.754;6.106;2023-07-29T10:57:15;1.50;;;1.30;;
12725;SDS011;6427;49.754;6.106;2023-07-29T10:59:57;1.80;;;1.23;;
12725;SDS011;6427;49.754;6.106;2023-07-29T11:02:29;2.43;;;1.10;;
12725;SDS011;6427;49.754;6.106;2023-07-29T11:04:59;1.77;;;1.10;;
12725;SDS011;6427;49.754;6.106;2023-07-29T11:07:26;1.20;;;1.10;;
12725;SDS011;6427;49.754;6.106;2023-07-29T11:10:00;3.10;;;1.30;;
12725;SDS011;6427;49.754;6.106;2023-07-29T11:12:40;1.40;;;1.30;;
12725;SDS011;6427;49.754;6.106;2023-07-29T11:15:19;1.57;;;0.97;;
12725;SDS011;6427;49.754;6.106;2023-07-29T11:20:14;1.10;;;1.10;;
12725;SDS011;6427;49.754;6.106;2023-07-29T11:22:41;2.80;;;1.30;;
12725;SDS011;6427;49.754;6.106;2023-07-29T11:25:10;0.90;;;0.90;;
12725;SDS011;6427;49.754;6.106;2023-07-29T11:27:37;1.20;;;1.10;;
12725;SDS011;6427;49.754;6.106;2023-07-29T11:30:06;0.93;;;0.93;;
12725;SDS011;6427;49.754;6.106;2023-07-29T11:32:36;2.03;;;1.20;;
12725;SDS011;6427;49.754;6.106;2023-07-29T11:35:03;2.83;;;0.83;;
12725;SDS011;6427;49.754;6.106;2023-07-29T11:37:32;1.80;;;0.90;;
12725;SDS011;6427;49.754;6.106;2023-07-29T11:39:59;0.93;;;0.80;;
12725;SDS011;6427;49.754;6.106;2023-07-29T11:42:27;0.93;;;0.90;;
12725;SDS011;6427;49.754;6.106;2023-07-29T11:44:58;1.73;;;1.10;;
12725;SDS011;6427;49.754;6.106;2023-07-29T11:47:25;0.83;;;0.63;;
12725;SDS011;6427;49.754;6.106;2023-07-29T11:49:53;3.40;;;0.90;;
12725;SDS011;6427;49.754;6.106;2023-07-29T11:52:21;2.77;;;1.00;;
12725;SDS011;6427;49.754;6.106;2023-07-29T11:54:48;0.80;;;0.80;;
12725;SDS011;6427;49.754;6.106;2023-07-29T11:57:16;0.80;;;0.80;;
12725;SDS011;6427;49.754;6.106;2023-07-29T11:59:43;1.20;;;1.00;;
12725;SDS011;6427;49.754;6.106;2023-07-29T12:02:12;1.00;;;0.90;;
12725;SDS011;6427;49.754;6.106;2023-07-29T12:04:39;1.10;;;1.00;;
12725;SDS011;6427;49.754;6.106;2023-07-29T12:07:08;2.00;;;1.03;;
12725;SDS011;6427;49.754;6.106;2023-07-29T12:09:35;1.43;;;0.70;;
12725;SDS011;6427;49.754;6.106;2023-07-29T12:12:03;1.20;;;1.10;;
12725;SDS011;6427;49.754;6.106;2023-07-29T12:14:31;1.97;;;0.80;;
12725;SDS011;6427;49.754;6.106;2023-07-29T12:17:02;1.00;;;0.90;;
12725;SDS011;6427;49.754;6.106;2023-07-29T12:19:33;0.80;;;0.80;;
12725;SDS011;6427;49.754;6.106;2023-07-29T12:22:01;0.90;;;0.90;;
12725;SDS011;6427;49.754;6.106;2023-07-29T12:24:31;1.47;;;0.90;;
12725;SDS011;6427;49.754;6.106;2023-07-29T12:26:59;1.53;;;1.10;;
12725;SDS011;6427;49.754;6.106;2023-07-29T12:29:26;2.03;;;0.90;;
12725;SDS011;6427;49.754;6.106;2023-07-29T12:32:00;1.30;;;1.20;;
12725;SDS011;6427;49.754;6.106;2023-07-29T12:34:28;1.00;;;0.90;;
12725;SDS011;6427;49.754;6.106;2023-07-29T12:36:56;0.90;;;0.90;;
12725;SDS011;6427;49.754;6.106;2023-07-29T12:41:52;2.70;;;1.07;;
12725;SDS011;6427;49.754;6.106;2023-07-29T12:44:19;1.50;;;1.27;;
12725;SDS011;6427;49.754;6.106;2023-07-29T12:46:46;1.40;;;1.30;;
12725;SDS011;6427;49.754;6.106;2023-07-29T12:49:14;1.55;;;1.30;;
12725;SDS011;6427;49.754;6.106;2023-07-29T12:51:41;2.80;;;1.30;;
12725;SDS011;6427;49.754;6.106;2023-07-29T12:54:09;1.63;;;1.53;;
12725;SDS011;6427;49.754;6.106;2023-07-29T12:56:37;3.20;;;1.10;;
12725;SDS011;6427;49.754;6.106;2023-07-29T12:59:04;1.23;;;1.12;;
12725;SDS011;6427;49.754;6.106;2023-07-29T13:01:32;1.17;;;1.03;;
12725;SDS011;6427;49.754;6.106;2023-07-29T13:03:59;2.10;;;1.00;;
12725;SDS011;6427;49.754;6.106;2023-07-29T13:06:27;2.83;;;1.27;;
12725;SDS011;6427;49.754;6.106;2023-07-29T13:08:55;1.20;;;1.10;;
12725;SDS011;6427;49.754;6.106;2023-07-29T13:11:22;1.50;;;1.00;;
12725;SDS011;6427;49.754;6.106;2023-07-29T13:13:50;1.00;;;0.90;;
12725;SDS011;6427;49.754;6.106;2023-07-29T13:16:17;2.27;;;0.93;;
12725;SDS011;6427;49.754;6.106;2023-07-29T13:18:45;1.03;;;0.90;;
12725;SDS011;6427;49.754;6.106;2023-07-29T13:21:13;0.87;;;0.87;;
12725;SDS011;6427;49.754;6.106;2023-07-29T13:23:41;1.90;;;1.10;;
12725;SDS011;6427;49.754;6.106;2023-07-29T13:26:08;1.27;;;1.00;;
12725;SDS011;6427;49.754;6.106;2023-07-29T13:28:36;5.37;;;1.17;;
12725;SDS011;6427;49.754;6.106;2023-07-29T13:31:04;1.17;;;1.07;;
12725;SDS011;6427;49.754;6.106;2023-07-29T13:33:32;1.53;;;1.30;;
12725;SDS011;6427;49.754;6.106;2023-07-29T13:36:00;2.03;;;0.90;;
12725;SDS011;6427;49.754;6.106;2023-07-29T13:38:27;1.47;;;0.90;;
12725;SDS011;6427;49.754;6.106;2023-07-29T13:40:55;1.27;;;1.00;;
12725;SDS011;6427;49.754;6.106;2023-07-29T13:43:22;1.20;;;1.00;;
12725;SDS011;6427;49.754;6.106;2023-07-29T13:45:50;1.07;;;0.97;;
12725;SDS011;6427;49.754;6.106;2023-07-29T13:48:18;0.90;;;0.90;;
12725;SDS011;6427;49.754;6.106;2023-07-29T13:50:45;1.00;;;0.90;;
12725;SDS011;6427;49.754;6.106;2023-07-29T13:53:13;0.83;;;0.83;;
12725;SDS011;6427;49.754;6.106;2023-07-29T13:55:40;0.77;;;0.77;;
12725;SDS011;6427;49.754;6.106;2023-07-29T13:58:09;0.70;;;0.70;;
12725;SDS011;6427;49.754;6.106;2023-07-29T14:00:36;1.37;;;0.87;;
12725;SDS011;6427;49.754;6.106;2023-07-29T14:03:05;1.47;;;0.90;;
12725;SDS011;6427;49.754;6.106;2023-07-29T14:05:32;1.10;;;1.00;;
12725;SDS011;6427;49.754;6.106;2023-07-29T14:08:00;1.10;;;0.90;;
12725;SDS011;6427;49.754;6.106;2023-07-29T14:10:27;1.70;;;1.13;;
12725;SDS011;6427;49.754;6.106;2023-07-29T14:12:55;1.90;;;1.00;;
12725;SDS011;6427;49.754;6.106;2023-07-29T14:15:23;1.03;;;1.00;;
12725;SDS011;6427;49.754;6.106;2023-07-29T14:17:50;0.80;;;0.70;;
12725;SDS011;6427;49.754;6.106;2023-07-29T14:20:18;2.78;;;0.93;;
12725;SDS011;6427;49.754;6.106;2023-07-29T14:22:45;1.10;;;0.80;;
12725;SDS011;6427;49.754;6.106;2023-07-29T14:25:13;1.00;;;0.80;;
12725;SDS011;6427;49.754;6.106;2023-07-29T14:27:41;1.08;;;0.80;;
12725;SDS011;6427;49.754;6.106;2023-07-29T14:30:08;2.20;;;1.03;;
12725;SDS011;6427;49.754;6.106;2023-07-29T14:32:36;1.20;;;0.70;;
12725;SDS011;6427;49.754;6.106;2023-07-29T14:35:04;1.67;;;0.80;;
12725;SDS011;6427;49.754;6.106;2023-07-29T14:37:32;0.83;;;0.83;;
12725;SDS011;6427;49.754;6.106;2023-07-29T14:40:00;2.00;;;0.80;;
12725;SDS011;6427;49.754;6.106;2023-07-29T14:42:27;1.23;;;1.03;;
12725;SDS011;6427;49.754;6.106;2023-07-29T14:44:55;2.20;;;1.20;;
12725;SDS011;6427;49.754;6.106;2023-07-29T14:47:22;2.10;;;1.00;;
12725;SDS011;6427;49.754;6.106;2023-07-29T14:49:50;1.27;;;0.90;;
12725;SDS011;6427;49.754;6.106;2023-07-29T14:52:17;1.20;;;1.10;;
12725;SDS011;6427;49.754;6.106;2023-07-29T14:54:46;1.40;;;0.93;;
12725;SDS011;6427;49.754;6.106;2023-07-29T14:57:13;1.00;;;0.90;;
12725;SDS011;6427;49.754;6.106;2023-07-29T14:59:41;1.73;;;0.90;;
12725;SDS011;6427;49.754;6.106;2023-07-29T15:02:09;1.10;;;1.00;;
12725;SDS011;6427;49.754;6.106;2023-07-29T15:04:36;1.20;;;0.90;;
12725;SDS011;6427;49.754;6.106;2023-07-29T15:07:04;1.27;;;1.07;;
12725;SDS011;6427;49.754;6.106;2023-07-29T15:09:31;1.30;;;1.20;;
12725;SDS011;6427;49.754;6.106;2023-07-29T15:11:59;1.43;;;1.07;;
12725;SDS011;6427;49.754;6.106;2023-07-29T15:14:27;1.73;;;1.00;;
12725;SDS011;6427;49.754;6.106;2023-07-29T15:16:54;1.53;;;1.17;;
12725;SDS011;6427;49.754;6.106;2023-07-29T15:19:22;1.30;;;0.83;;